Time;durP1;ratioP1;P1;durP2;ratioP2;P2;SDS_P1;SDS_P2;PMS_P1;PMS_P2;Temp;Humidity;BMP_temperature;BMP_pressure;BME280_temperature;BME280_humidity;BME280_pressure;Samples;Min_cycle;Max_cycle;Signal;HPM_P1;HPM_P2
2021/05/30 00:01:31;;;;;;;7.20;6.50;;;17.10;47.50;;;;;;5009795;28;20656;-47
2021/05/30 00:03:58;;;;;;;6.30;5.77;;;17.00;47.80;;;;;;5009658;28;20673;-49
2021/05/30 00:06:28;;;;;;;6.73;6.13;;;17.00;48.10;;;;;;5008750;28;20672;-48
2021/05/30 00:08:55;;;;;;;10.73;6.70;;;17.00;48.30;;;;;;5008013;28;20694;-49
2021/05/30 00:11:22;;;;;;;6.60;6.10;;;16.90;48.80;;;;;;5009975;28;21181;-48
2021/05/30 00:13:49;;;;;;;7.47;6.70;;;17.00;49.60;;;;;;5009504;28;20996;-49
2021/05/30 00:16:16;;;;;;;7.70;7.00;;;16.90;49.70;;;;;;5010167;28;20639;-49
2021/05/30 00:18:43;;;;;;;8.10;6.60;;;16.90;49.90;;;;;;5013324;28;20703;-49
2021/05/30 00:21:10;;;;;;;8.30;6.57;;;16.90;50.20;;;;;;5012699;28;20663;-51
2021/05/30 00:23:36;;;;;;;7.30;6.60;;;16.90;50.50;;;;;;5013162;28;21192;-50
2021/05/30 00:26:04;;;;;;;6.53;5.93;;;16.90;50.90;;;;;;5013218;28;20656;-50
2021/05/30 00:28:31;;;;;;;7.40;6.70;;;16.90;51.30;;;;;;5012240;28;20675;-50
2021/05/30 00:30:57;;;;;;;7.60;6.90;;;16.80;51.50;;;;;;5012710;28;20656;-51
2021/05/30 00:33:25;;;;;;;9.20;7.00;;;16.90;51.60;;;;;;5011967;28;20624;-50
2021/05/30 00:35:52;;;;;;;7.93;7.13;;;16.80;51.90;;;;;;5012268;28;20651;-50
2021/05/30 00:38:18;;;;;;;7.83;6.30;;;16.80;52.30;;;;;;5012206;28;20706;-50
2021/05/30 00:40:45;;;;;;;8.83;7.90;;;16.70;52.50;;;;;;5012805;28;20656;-49
2021/05/30 00:43:12;;;;;;;6.87;6.27;;;16.70;53.00;;;;;;5012170;28;20664;-49
2021/05/30 00:45:39;;;;;;;7.83;7.00;;;16.70;53.20;;;;;;5012731;28;20666;-50
2021/05/30 00:48:06;;;;;;;7.70;7.00;;;16.60;53.50;;;;;;5012143;28;20845;-50
2021/05/30 00:50:33;;;;;;;6.77;6.20;;;16.70;54.10;;;;;;5012222;28;21249;-49
2021/05/30 00:53:00;;;;;;;7.80;7.10;;;16.60;54.30;;;;;;5012414;28;20635;-50
2021/05/30 00:55:27;;;;;;;8.63;7.93;;;16.50;54.20;;;;;;5011614;28;20652;-50
2021/05/30 00:57:54;;;;;;;10.43;7.60;;;16.50;54.80;;;;;;5011879;28;20703;-50
2021/05/30 01:00:21;;;;;;;8.30;7.53;;;16.50;55.10;;;;;;5011813;28;20690;-50
2021/05/30 01:02:48;;;;;;;8.53;7.73;;;16.50;55.40;;;;;;5012016;28;21208;-51
2021/05/30 01:05:15;;;;;;;8.60;7.90;;;16.40;55.60;;;;;;5010944;28;20682;-49
2021/05/30 01:07:45;;;;;;;9.20;7.27;;;16.40;55.90;;;;;;5011464;28;20682;-50
2021/05/30 01:10:18;;;;;;;8.47;7.10;;;16.40;56.20;;;;;;5012161;28;20655;-49
2021/05/30 01:12:45;;;;;;;8.33;7.00;;;16.40;56.60;;;;;;5011782;28;20655;-50
2021/05/30 01:15:13;;;;;;;9.00;8.20;;;16.30;56.90;;;;;;5011082;28;20676;-50
2021/05/30 01:17:40;;;;;;;7.40;6.67;;;16.20;57.70;;;;;;5011674;28;20707;-50
2021/05/30 01:20:09;;;;;;;8.53;7.73;;;16.20;58.10;;;;;;5010173;28;21247;-50
2021/05/30 01:22:35;;;;;;;8.90;8.10;;;16.20;58.50;;;;;;5011082;28;20655;-50
2021/05/30 01:25:04;;;;;;;8.40;7.60;;;16.30;58.70;;;;;;5011321;28;20970;-50
2021/05/30 01:27:30;;;;;;;8.03;7.33;;;16.20;59.00;;;;;;5010331;28;20690;-50
2021/05/30 01:29:57;;;;;;;8.30;7.50;;;16.20;59.30;;;;;;5010906;28;20632;-50
2021/05/30 01:32:24;;;;;;;8.53;7.23;;;16.20;59.50;;;;;;5011142;28;20666;-49
2021/05/30 01:34:51;;;;;;;8.47;7.60;;;16.20;59.60;;;;;;5011509;28;20658;-50
2021/05/30 01:37:18;;;;;;;9.53;8.63;;;16.20;59.90;;;;;;5011387;28;20775;-49
2021/05/30 01:39:44;;;;;;;8.97;8.17;;;16.10;60.50;;;;;;5010884;28;20668;-48
2021/05/30 01:42:12;;;;;;;7.83;7.20;;;16.10;60.90;;;;;;5011227;28;21196;-48
2021/05/30 01:44:39;;;;;;;8.30;7.50;;;16.10;61.40;;;;;;5011369;28;20681;-49
2021/05/30 01:47:05;;;;;;;8.40;7.53;;;16.10;61.80;;;;;;5011224;28;20762;-48
2021/05/30 01:49:32;;;;;;;9.47;8.47;;;16.00;62.50;;;;;;5006476;28;20667;-48
2021/05/30 01:52:00;;;;;;;7.67;6.97;;;16.00;62.80;;;;;;5012910;28;21260;-49
2021/05/30 01:54:28;;;;;;;9.77;8.13;;;15.90;63.20;;;;;;5012500;28;20648;-50
2021/05/30 01:56:55;;;;;;;10.13;9.13;;;15.80;63.80;;;;;;5012026;28;20746;-50
2021/05/30 01:59:23;;;;;;;11.50;9.33;;;15.80;64.40;;;;;;5012655;28;20631;-49
2021/05/30 02:01:50;;;;;;;8.80;7.90;;;15.70;65.20;;;;;;5018386;28;20666;-50
2021/05/30 02:04:17;;;;;;;9.40;8.50;;;15.70;65.90;;;;;;5010544;28;20664;-50
2021/05/30 02:06:44;;;;;;;9.53;8.63;;;15.70;66.40;;;;;;5010422;28;20814;-49
2021/05/30 02:09:11;;;;;;;10.80;8.33;;;15.70;66.60;;;;;;5009963;28;20648;-49
2021/05/30 02:11:38;;;;;;;9.40;8.40;;;15.70;66.90;;;;;;5010462;28;20663;-50
2021/05/30 02:14:05;;;;;;;7.93;7.13;;;15.70;67.10;;;;;;5010782;28;20658;-49
2021/05/30 02:16:32;;;;;;;9.07;8.20;;;15.60;67.20;;;;;;5009169;28;20676;-50
2021/05/30 02:18:59;;;;;;;9.77;8.40;;;15.70;67.80;;;;;;5010675;28;21232;-50
2021/05/30 02:21:26;;;;;;;10.50;9.57;;;15.70;68.20;;;;;;5008039;28;20662;-49
2021/05/30 02:23:53;;;;;;;9.33;8.30;;;15.70;68.30;;;;;;5010185;28;20651;-50
2021/05/30 02:26:19;;;;;;;10.27;9.00;;;15.60;68.00;;;;;;5010234;28;20667;-49
2021/05/30 02:28:46;;;;;;;9.03;8.13;;;15.50;68.30;;;;;;5008996;28;20684;-48
2021/05/30 02:31:13;;;;;;;10.60;9.50;;;15.50;69.00;;;;;;5009744;28;20816;-49
2021/05/30 02:33:40;;;;;;;7.93;7.23;;;15.40;69.30;;;;;;5009617;28;20697;-50
2021/05/30 02:36:07;;;;;;;8.67;7.90;;;15.40;70.10;;;;;;5010328;28;20667;-49
2021/05/30 02:38:34;;;;;;;9.90;9.00;;;15.30;70.60;;;;;;5008761;28;20725;-48
2021/05/30 02:41:01;;;;;;;9.50;8.60;;;15.30;70.90;;;;;;5009780;28;20666;-49
2021/05/30 02:43:27;;;;;;;10.17;9.20;;;15.30;70.90;;;;;;5010100;28;20626;-48
2021/05/30 02:45:54;;;;;;;10.60;8.83;;;15.20;71.50;;;;;;5010094;28;20635;-49
2021/05/30 02:48:21;;;;;;;10.83;9.73;;;15.20;71.80;;;;;;5008018;28;20679;-49
2021/05/30 02:50:58;;;;;;;11.53;9.17;;;15.10;72.50;;;;;;5010326;28;20628;-49
2021/05/30 02:53:25;;;;;;;9.27;8.37;;;15.10;72.80;;;;;;4990119;28;20621;-49
2021/05/30 02:55:52;;;;;;;9.00;8.10;;;15.10;73.60;;;;;;4990035;28;20737;-49
2021/05/30 02:58:18;;;;;;;9.60;8.50;;;15.10;73.60;;;;;;4989703;28;20669;-49
2021/05/30 03:00:45;;;;;;;10.50;9.43;;;15.10;73.50;;;;;;4990438;28;20667;-49
2021/05/30 03:03:12;;;;;;;10.67;8.07;;;15.00;73.30;;;;;;4994099;28;20778;-49
2021/05/30 03:05:39;;;;;;;8.97;8.07;;;15.10;74.10;;;;;;5009680;28;20734;-49
2021/05/30 03:08:06;;;;;;;9.80;8.80;;;15.00;74.20;;;;;;5009167;28;21123;-49
2021/05/30 03:10:33;;;;;;;11.10;9.50;;;15.00;74.20;;;;;;5011382;28;21024;-49
2021/05/30 03:13:00;;;;;;;9.40;8.50;;;15.00;73.90;;;;;;5009341;28;20694;-48
2021/05/30 03:15:27;;;;;;;11.50;10.37;;;14.90;73.80;;;;;;5008746;28;20979;-49
2021/05/30 03:17:53;;;;;;;10.13;8.60;;;14.80;74.20;;;;;;5008891;28;20977;-50
2021/05/30 03:20:20;;;;;;;12.70;9.40;;;14.70;74.60;;;;;;5009688;28;20678;-49
2021/05/30 03:22:47;;;;;;;9.83;8.83;;;14.60;74.70;;;;;;5008945;28;20619;-49
2021/05/30 03:25:15;;;;;;;10.13;9.17;;;14.60;75.10;;;;;;5009073;28;20666;-49
2021/05/30 03:27:41;;;;;;;10.37;9.27;;;14.50;75.40;;;;;;5009234;28;20759;-49
2021/05/30 03:30:09;;;;;;;10.33;8.90;;;14.50;75.90;;;;;;5009475;28;20660;-49
2021/05/30 03:32:36;;;;;;;9.57;8.67;;;14.40;76.20;;;;;;5009409;28;20680;-48
2021/05/30 03:35:03;;;;;;;10.33;9.33;;;14.40;76.50;;;;;;5009380;28;20660;-49
2021/05/30 03:37:30;;;;;;;12.20;10.10;;;14.40;76.80;;;;;;5008069;28;20779;-49
2021/05/30 03:39:59;;;;;;;10.20;8.60;;;14.30;76.80;;;;;;5009058;28;20656;-49
2021/05/30 03:42:29;;;;;;;10.57;9.60;;;14.20;77.30;;;;;;5009550;28;20686;-49
2021/05/30 03:44:56;;;;;;;10.63;9.63;;;14.20;77.70;;;;;;5009451;28;20622;-49
2021/05/30 03:47:23;;;;;;;10.60;9.53;;;14.10;77.90;;;;;;5008971;28;20681;-49
2021/05/30 03:49:50;;;;;;;10.37;9.07;;;14.00;78.60;;;;;;5009314;28;20718;-49
2021/05/30 03:52:16;;;;;;;9.90;8.90;;;14.00;79.00;;;;;;5012746;28;20647;-48
2021/05/30 03:54:43;;;;;;;10.93;9.93;;;14.00;79.60;;;;;;5012666;28;20994;-49
2021/05/30 03:57:10;;;;;;;12.30;9.60;;;14.00;79.40;;;;;;5012419;28;20751;-49
2021/05/30 03:59:38;;;;;;;10.50;9.50;;;13.90;79.80;;;;;;5012077;28;20691;-49
2021/05/30 04:02:05;;;;;;;11.40;9.57;;;13.90;80.10;;;;;;5012457;28;21172;-49
2021/05/30 04:04:32;;;;;;;10.47;9.27;;;13.90;80.20;;;;;;5012664;28;20694;-49
2021/05/30 04:06:58;;;;;;;10.13;9.23;;;13.90;80.50;;;;;;5012789;28;21021;-49
2021/05/30 04:09:25;;;;;;;10.50;9.20;;;13.90;80.60;;;;;;5012124;28;20660;-49
2021/05/30 04:11:52;;;;;;;10.37;9.37;;;13.80;80.70;;;;;;5023818;28;20631;-49
2021/05/30 04:14:18;;;;;;;10.50;9.40;;;13.80;81.20;;;;;;5032565;28;20665;-50
2021/05/30 04:16:46;;;;;;;10.20;9.20;;;13.90;81.40;;;;;;5021403;28;20698;-49
2021/05/30 04:19:13;;;;;;;13.20;10.50;;;13.90;81.40;;;;;;5012472;28;20691;-49
2021/05/30 04:21:39;;;;;;;10.60;9.60;;;13.80;81.40;;;;;;5012558;28;20659;-49
2021/05/30 04:24:07;;;;;;;9.93;8.33;;;13.90;81.90;;;;;;5012535;28;20777;-50
2021/05/30 04:26:34;;;;;;;10.37;9.37;;;13.90;82.00;;;;;;5012571;28;21031;-49
2021/05/30 04:29:01;;;;;;;10.37;9.37;;;13.90;81.70;;;;;;5012461;28;20628;-50
2021/05/30 04:31:27;;;;;;;9.13;8.17;;;13.90;81.10;;;;;;5012642;28;21233;-49
2021/05/30 04:33:55;;;;;;;12.80;11.50;;;13.80;81.20;;;;;;5012346;28;20712;-49
2021/05/30 04:36:22;;;;;;;10.97;9.97;;;13.80;81.60;;;;;;5010141;28;20639;-48
2021/05/30 04:38:48;;;;;;;13.17;11.40;;;13.80;81.70;;;;;;5027647;28;20694;-49
2021/05/30 04:41:15;;;;;;;11.43;10.23;;;13.80;81.90;;;;;;5032054;28;20630;-49
2021/05/30 04:43:42;;;;;;;11.33;10.33;;;13.80;82.00;;;;;;5031695;28;20666;-48
2021/05/30 04:46:08;;;;;;;10.83;9.73;;;13.70;82.40;;;;;;5031277;28;20661;-49
2021/05/30 04:48:35;;;;;;;11.33;10.27;;;13.70;82.90;;;;;;5031374;28;20705;-49
2021/05/30 04:51:07;;;;;;;11.87;9.67;;;13.70;82.80;;;;;;5017016;28;21082;-50
2021/05/30 04:53:35;;;;;;;10.87;9.83;;;13.70;82.80;;;;;;5011970;28;20667;-48
2021/05/30 04:56:03;;;;;;;11.67;10.47;;;13.80;83.30;;;;;;5011907;28;20655;-49
2021/05/30 04:58:29;;;;;;;10.33;9.40;;;13.70;83.50;;;;;;5011035;28;21042;-49
2021/05/30 05:00:56;;;;;;;10.17;8.80;;;13.70;83.60;;;;;;5011279;28;20655;-49
2021/05/30 05:03:23;;;;;;;10.57;9.50;;;13.80;84.00;;;;;;5011454;28;20941;-49
2021/05/30 05:05:52;;;;;;;10.50;9.40;;;13.80;83.90;;;;;;5013306;28;20692;-49
2021/05/30 05:08:20;;;;;;;11.40;9.27;;;13.80;83.70;;;;;;5011156;28;20656;-49
2021/05/30 05:10:48;;;;;;;11.97;10.77;;;13.80;83.80;;;;;;5011514;28;20660;-50
2021/05/30 05:13:14;;;;;;;11.20;10.10;;;13.90;84.00;;;;;;5011878;28;20661;-49
2021/05/30 05:15:43;;;;;;;10.57;9.47;;;13.90;83.90;;;;;;5011657;28;20624;-49
2021/05/30 05:18:12;;;;;;;11.20;9.00;;;13.90;84.00;;;;;;5011339;28;20703;-49
2021/05/30 05:20:39;;;;;;;9.67;8.67;;;13.90;84.50;;;;;;5023608;28;21028;-49
2021/05/30 05:23:06;;;;;;;10.37;9.00;;;13.90;84.50;;;;;;5029664;28;20941;-49
2021/05/30 05:25:35;;;;;;;9.17;8.00;;;13.90;84.70;;;;;;5011469;28;20628;-49
2021/05/30 05:28:02;;;;;;;10.73;8.70;;;14.00;85.20;;;;;;5011283;28;21220;-50
2021/05/30 05:30:29;;;;;;;9.90;9.00;;;14.10;85.10;;;;;;5011533;28;20786;-49
2021/05/30 05:32:57;;;;;;;8.47;7.57;;;14.10;84.60;;;;;;5012869;28;21167;-50
2021/05/30 05:35:23;;;;;;;9.43;8.23;;;14.20;84.60;;;;;;5023390;28;20635;-49
2021/05/30 05:37:53;;;;;;;8.87;7.97;;;14.20;84.40;;;;;;5011171;28;20702;-50
2021/05/30 05:40:20;;;;;;;10.07;9.07;;;14.30;84.20;;;;;;5025746;28;20639;-49
2021/05/30 05:42:47;;;;;;;8.53;7.83;;;14.40;84.40;;;;;;5011542;28;20647;-50
2021/05/30 05:45:15;;;;;;;9.33;8.43;;;14.40;84.20;;;;;;5012065;28;20643;-50
2021/05/30 05:47:43;;;;;;;9.00;8.20;;;14.50;84.10;;;;;;5011252;28;20707;-49
2021/05/30 05:50:10;;;;;;;9.00;8.10;;;14.50;84.50;;;;;;5012367;28;20624;-49
2021/05/30 05:52:37;;;;;;;8.10;7.30;;;14.50;83.90;;;;;;5012774;28;20655;-49
2021/05/30 05:55:05;;;;;;;8.93;8.03;;;14.50;84.00;;;;;;5012464;28;20669;-49
2021/05/30 05:57:32;;;;;;;8.50;7.80;;;14.60;84.50;;;;;;5012049;28;20688;-49
2021/05/30 05:59:59;;;;;;;10.10;7.60;;;14.70;84.50;;;;;;5012447;28;20691;-49
2021/05/30 06:02:26;;;;;;;7.97;6.97;;;14.80;84.60;;;;;;5012563;28;20644;-49
2021/05/30 06:04:53;;;;;;;8.07;7.23;;;14.90;84.10;;;;;;5011458;28;21040;-49
2021/05/30 06:07:19;;;;;;;9.43;7.30;;;15.00;83.80;;;;;;5010304;28;20699;-49
2021/05/30 06:09:46;;;;;;;8.13;7.33;;;15.10;83.30;;;;;;5011823;28;20705;-49
2021/05/30 06:12:13;;;;;;;7.80;7.10;;;15.20;82.80;;;;;;5022276;28;20663;-49
2021/05/30 06:14:40;;;;;;;8.87;7.53;;;15.30;81.50;;;;;;5010190;28;21213;-49
2021/05/30 06:17:08;;;;;;;8.37;7.00;;;15.30;81.40;;;;;;5010276;28;20683;-50
2021/05/30 06:19:34;;;;;;;8.67;7.87;;;15.40;81.10;;;;;;5010846;28;20795;-49
2021/05/30 06:22:01;;;;;;;8.10;6.53;;;15.40;81.00;;;;;;5010835;28;20659;-49
2021/05/30 06:24:28;;;;;;;9.30;8.40;;;15.50;80.50;;;;;;5011023;28;20624;-49
2021/05/30 06:26:55;;;;;;;7.80;7.10;;;15.50;79.60;;;;;;5010776;28;20773;-50
2021/05/30 06:29:22;;;;;;;7.97;6.60;;;15.50;79.50;;;;;;5014885;28;20677;-50
2021/05/30 06:31:49;;;;;;;8.30;7.57;;;15.60;79.50;;;;;;5009961;28;20682;-49
2021/05/30 06:34:16;;;;;;;8.73;6.70;;;15.60;78.90;;;;;;5010812;28;20701;-49
2021/05/30 06:36:43;;;;;;;7.23;6.63;;;15.60;78.60;;;;;;5009857;28;20695;-49
2021/05/30 06:39:10;;;;;;;7.20;6.47;;;15.70;78.50;;;;;;5009632;28;20798;-49
2021/05/30 06:41:37;;;;;;;7.33;6.63;;;15.70;78.60;;;;;;5010479;28;20647;-49
2021/05/30 06:44:04;;;;;;;7.27;6.57;;;15.80;78.40;;;;;;5010454;28;20693;-50
2021/05/30 06:46:31;;;;;;;6.70;6.10;;;15.90;78.30;;;;;;5009793;28;20628;-50
2021/05/30 06:48:57;;;;;;;7.03;6.43;;;16.00;78.10;;;;;;5009549;28;20934;-50
2021/05/30 06:51:29;;;;;;;10.00;7.70;;;16.00;77.40;;;;;;5010261;28;20659;-49
2021/05/30 06:53:56;;;;;;;6.97;6.27;;;16.10;76.00;;;;;;5010144;28;20960;-50
2021/05/30 06:56:23;;;;;;;6.53;5.93;;;16.20;75.90;;;;;;5010018;28;20667;-50
2021/05/30 06:58:50;;;;;;;6.60;6.00;;;16.30;75.60;;;;;;5011825;28;20652;-49
2021/05/30 07:01:18;;;;;;;8.07;6.70;;;16.40;74.70;;;;;;5022437;28;20953;-49
2021/05/30 07:03:45;;;;;;;7.50;6.50;;;16.40;73.70;;;;;;5010143;28;20664;-49
2021/05/30 07:06:12;;;;;;;7.33;6.63;;;16.40;73.20;;;;;;5010260;28;20643;-50
2021/05/30 07:08:39;;;;;;;9.33;6.50;;;16.40;72.80;;;;;;5009750;28;20684;-50
2021/05/30 07:11:06;;;;;;;7.83;6.70;;;16.40;72.50;;;;;;5022303;28;20994;-48
2021/05/30 07:13:33;;;;;;;6.97;6.30;;;16.50;72.90;;;;;;5011652;28;21011;-50
2021/05/30 07:16:00;;;;;;;7.10;6.20;;;16.50;72.60;;;;;;5018229;28;20669;-50
2021/05/30 07:18:26;;;;;;;6.60;5.90;;;16.60;72.60;;;;;;5012216;28;20688;-49
2021/05/30 07:20:54;;;;;;;6.07;5.57;;;16.70;73.30;;;;;;5009631;28;20762;-49
2021/05/30 07:23:21;;;;;;;5.77;5.23;;;16.90;73.30;;;;;;5009567;28;20624;-49
2021/05/30 07:25:49;;;;;;;5.57;5.07;;;17.10;72.30;;;;;;5010628;28;20660;-50
2021/05/30 07:28:16;;;;;;;6.80;6.20;;;17.40;71.20;;;;;;5019167;28;20743;-49
2021/05/30 07:30:42;;;;;;;7.20;5.83;;;17.60;69.30;;;;;;5010153;28;20662;-50
2021/05/30 07:33:09;;;;;;;7.57;6.87;;;17.80;68.30;;;;;;5009046;28;21048;-50
2021/05/30 07:35:36;;;;;;;5.90;5.40;;;18.00;67.40;;;;;;5016378;28;21012;-50
2021/05/30 07:38:03;;;;;;;6.50;5.90;;;18.20;65.60;;;;;;5011338;28;20695;-49
2021/05/30 07:40:30;;;;;;;7.47;5.90;;;18.30;64.20;;;;;;5011454;28;20706;-49
2021/05/30 07:42:58;;;;;;;6.67;6.17;;;18.40;64.30;;;;;;5011117;28;20659;-49
2021/05/30 07:45:25;;;;;;;5.67;5.10;;;18.60;64.10;;;;;;5010910;28;20628;-50
2021/05/30 07:47:52;;;;;;;6.53;6.03;;;18.70;62.40;;;;;;5011069;28;20688;-50
2021/05/30 07:50:19;;;;;;;5.93;5.33;;;18.90;62.80;;;;;;5010302;28;21223;-49
2021/05/30 07:52:46;;;;;;;7.20;5.00;;;19.00;60.00;;;;;;5010078;28;21192;-48
2021/05/30 07:55:13;;;;;;;5.73;5.23;;;19.10;60.00;;;;;;5009288;28;20660;-49
2021/05/30 07:57:40;;;;;;;7.97;6.87;;;19.20;60.60;;;;;;5009975;28;20659;-48
2021/05/30 08:00:09;;;;;;;5.40;4.80;;;19.40;60.00;;;;;;5020334;28;20691;-49
2021/05/30 08:02:36;;;;;;;5.83;5.43;;;19.50;58.20;;;;;;5009431;28;21087;-49
2021/05/30 08:05:03;;;;;;;6.23;5.73;;;19.50;57.10;;;;;;5008923;28;20667;-48
2021/05/30 08:07:30;;;;;;;6.30;5.80;;;19.50;56.80;;;;;;5008451;28;20740;-49
2021/05/30 08:09:56;;;;;;;5.80;5.30;;;19.50;56.80;;;;;;5009459;28;20670;-48
2021/05/30 08:12:23;;;;;;;5.83;5.33;;;19.60;57.10;;;;;;5008736;28;20700;-50
2021/05/30 08:14:50;;;;;;;4.97;4.57;;;19.80;56.80;;;;;;5002001;28;20631;-49
2021/05/30 08:17:17;;;;;;;5.80;5.30;;;20.00;56.30;;;;;;5011249;28;20652;-49
2021/05/30 08:19:44;;;;;;;6.30;5.53;;;20.20;55.60;;;;;;5023146;28;20758;-50
2021/05/30 08:22:11;;;;;;;5.80;5.30;;;20.40;54.40;;;;;;5028731;28;20980;-49
2021/05/30 08:24:37;;;;;;;7.60;5.37;;;20.60;54.30;;;;;;5016140;28;20675;-49
2021/05/30 08:27:05;;;;;;;5.20;4.87;;;20.80;54.20;;;;;;5024633;28;20655;-49
2021/05/30 08:29:32;;;;;;;5.30;4.90;;;20.90;53.50;;;;;;5013560;28;21064;-49
2021/05/30 08:31:59;;;;;;;5.23;4.60;;;21.20;53.70;;;;;;5015190;28;20657;-49
2021/05/30 08:34:28;;;;;;;5.73;5.23;;;21.40;53.10;;;;;;5014209;28;20639;-49
2021/05/30 08:36:55;;;;;;;5.57;5.17;;;21.50;51.40;;;;;;5020465;28;20651;-50
2021/05/30 08:39:22;;;;;;;5.13;4.73;;;21.70;49.80;;;;;;5020708;28;20709;-49
2021/05/30 08:41:49;;;;;;;5.27;4.77;;;21.80;49.30;;;;;;5013917;28;21153;-49
2021/05/30 08:44:15;;;;;;;6.30;5.00;;;22.00;48.70;;;;;;5022674;28;20627;-49
2021/05/30 08:46:42;;;;;;;4.80;4.40;;;22.10;47.80;;;;;;5012061;28;21279;-49
2021/05/30 08:49:09;;;;;;;4.07;3.73;;;22.10;47.20;;;;;;5011856;28;20719;-49
2021/05/30 08:51:38;;;;;;;5.90;5.27;;;22.00;46.00;;;;;;5011752;28;20631;-50
2021/05/30 08:54:09;;;;;;;5.33;4.60;;;21.80;46.10;;;;;;4998007;28;20771;-49
2021/05/30 08:56:38;;;;;;;4.17;3.87;;;21.70;46.80;;;;;;5011484;28;20689;-50
2021/05/30 08:59:15;;;;;;;4.77;4.30;;;21.70;46.00;;;;;;5010939;28;20648;-51
2021/05/30 09:01:42;;;;;;;5.20;4.80;;;21.70;45.30;;;;;;5011728;28;20630;-50
2021/05/30 09:04:09;;;;;;;4.40;4.00;;;21.80;45.50;;;;;;5011784;28;20663;-51
2021/05/30 09:06:37;;;;;;;6.03;5.10;;;21.80;45.80;;;;;;5010795;28;20713;-51
2021/05/30 09:09:05;;;;;;;4.60;4.23;;;21.70;45.60;;;;;;5030253;28;20623;-51
2021/05/30 09:11:45;;;;;;;4.50;4.10;;;21.60;44.70;;;;;;5019610;28;20639;-51
2021/05/30 09:14:14;;;;;;;6.80;5.17;;;21.70;45.20;;;;;;4992629;28;20633;-50
2021/05/30 09:17:02;;;;;;;4.13;3.73;;;21.80;45.10;;;;;;5009726;28;20629;-50
2021/05/30 09:19:51;;;;;;;4.20;3.80;;;22.00;42.70;;;;;;5009322;28;20841;-50
2021/05/30 09:22:32;;;;;;;4.27;3.87;;;22.10;42.20;;;;;;5011693;28;20627;-50
2021/05/30 09:25:22;;;;;;;4.77;4.07;;;22.20;41.20;;;;;;5012683;28;20628;-50
2021/05/30 09:27:54;;;;;;;3.63;3.37;;;22.40;40.80;;;;;;5011579;28;21243;-49
2021/05/30 09:30:26;;;;;;;6.47;4.60;;;22.70;41.00;;;;;;5010821;28;21161;-50
2021/05/30 09:32:57;;;;;;;4.70;4.30;;;23.20;40.90;;;;;;5023803;28;20619;-50
2021/05/30 09:35:24;;;;;;;4.50;4.10;;;23.60;40.30;;;;;;5008625;28;20624;-49
2021/05/30 09:37:59;;;;;;;5.10;4.80;;;24.10;39.00;;;;;;5011036;28;20733;-50
2021/05/30 09:40:36;;;;;;;4.93;4.63;;;24.10;38.30;;;;;;5009322;28;20713;-50
2021/05/30 09:43:06;;;;;;;3.73;3.43;;;24.10;37.80;;;;;;5014753;28;20668;-49
2021/05/30 09:45:33;;;;;;;4.97;4.57;;;24.00;37.80;;;;;;5010870;28;20719;-50
2021/05/30 09:48:00;;;;;;;4.43;4.03;;;23.80;38.20;;;;;;5010540;28;20660;-49
2021/05/30 09:50:28;;;;;;;5.40;4.90;;;23.70;39.10;;;;;;5009748;28;21046;-50
2021/05/30 09:52:55;;;;;;;6.03;5.60;;;23.40;39.60;;;;;;5011321;28;20632;-50
2021/05/30 09:55:23;;;;;;;6.53;4.17;;;23.10;40.10;;;;;;5011208;28;20754;-49
2021/05/30 09:58:11;;;;;;;5.93;5.33;;;23.00;40.70;;;;;;5011008;28;20814;-49
2021/05/30 10:00:38;;;;;;;5.30;4.80;;;22.70;41.10;;;;;;5010846;28;20737;-50
2021/05/30 10:03:05;;;;;;;5.03;4.63;;;22.50;41.40;;;;;;5010077;28;20689;-50
2021/05/30 10:05:32;;;;;;;5.50;5.00;;;22.40;41.30;;;;;;5010251;28;20686;-50
2021/05/30 10:07:59;;;;;;;4.70;4.27;;;22.40;41.70;;;;;;5009898;28;20660;-49
2021/05/30 10:10:27;;;;;;;4.10;3.80;;;22.40;41.50;;;;;;5010444;28;20650;-50
2021/05/30 10:12:54;;;;;;;5.30;4.80;;;22.40;41.30;;;;;;5009073;28;20639;-50
2021/05/30 10:15:21;;;;;;;4.90;4.50;;;22.50;41.40;;;;;;5010695;28;20620;-49
2021/05/30 10:17:47;;;;;;;5.20;4.80;;;22.40;41.20;;;;;;5009824;28;20718;-50
2021/05/30 10:20:16;;;;;;;5.30;4.80;;;22.40;41.30;;;;;;5010600;28;21191;-50
2021/05/30 10:22:43;;;;;;;4.63;4.23;;;22.40;41.40;;;;;;5010314;28;20625;-49
2021/05/30 10:25:10;;;;;;;5.43;4.50;;;22.60;41.50;;;;;;5010066;28;20694;-49
2021/05/30 10:27:38;;;;;;;4.43;4.13;;;22.80;41.40;;;;;;5010302;28;20683;-49
2021/05/30 10:30:14;;;;;;;4.50;4.13;;;22.90;41.10;;;;;;5008201;28;20615;-50
2021/05/30 10:32:42;;;;;;;4.23;3.90;;;23.10;40.40;;;;;;5008859;28;20699;-50
2021/05/30 10:35:10;;;;;;;3.80;3.47;;;23.40;40.60;;;;;;5015411;28;20633;-51
2021/05/30 10:37:40;;;;;;;3.90;3.60;;;23.50;40.10;;;;;;5030279;28;21018;-51
2021/05/30 10:40:25;;;;;;;4.30;4.00;;;23.40;39.10;;;;;;5015333;28;20734;-49
2021/05/30 10:43:17;;;;;;;4.60;4.20;;;23.30;38.90;;;;;;5006847;28;20639;-50
2021/05/30 10:46:05;;;;;;;9.33;4.10;;;23.10;39.10;;;;;;5011281;28;20632;-48
2021/05/30 10:48:32;;;;;;;4.53;4.13;;;22.90;39.50;;;;;;5010841;28;20660;-49
2021/05/30 10:53:51;;;;;;;4.57;4.17;;;22.60;39.50;;;;;;4997056;28;20624;-49
2021/05/30 10:56:28;;;;;;;4.07;3.77;;;22.70;39.70;;;;;;5029343;28;20689;-49
2021/05/30 10:59:22;;;;;;;5.07;4.67;;;22.90;39.40;;;;;;5015918;28;20624;-49
2021/05/30 11:01:51;;;;;;;4.50;4.07;;;23.00;39.00;;;;;;5008312;28;20678;-49
2021/05/30 11:04:39;;;;;;;3.10;2.87;;;23.00;38.80;;;;;;5010499;28;21181;-51
2021/05/30 11:07:08;;;;;;;3.90;3.60;;;22.90;37.60;;;;;;5009946;28;20668;-49
2021/05/30 11:10:03;;;;;;;3.80;3.57;;;22.90;37.90;;;;;;5024565;28;21171;-49
2021/05/30 11:12:32;;;;;;;3.60;3.30;;;22.90;37.80;;;;;;5005877;28;20636;-50
2021/05/30 11:15:25;;;;;;;4.80;4.40;;;22.90;38.10;;;;;;5009447;28;20623;-50
2021/05/30 11:17:53;;;;;;;3.80;3.40;;;22.90;37.90;;;;;;5005636;28;20659;-50
2021/05/30 11:20:22;;;;;;;4.33;4.03;;;23.00;37.70;;;;;;5007999;28;20668;-49
2021/05/30 11:22:51;;;;;;;3.50;3.27;;;23.10;37.90;;;;;;5008774;28;20624;-49
2021/05/30 11:25:18;;;;;;;5.80;4.00;;;23.40;37.90;;;;;;5025451;28;20627;-50
2021/05/30 11:27:56;;;;;;;4.03;3.73;;;23.60;37.00;;;;;;5028432;28;20661;-50
2021/05/30 11:30:49;;;;;;;4.50;4.10;;;23.80;37.30;;;;;;5029259;28;20614;-50
2021/05/30 11:33:26;;;;;;;4.10;3.70;;;24.00;37.30;;;;;;5029086;28;20639;-50
2021/05/30 11:35:54;;;;;;;4.40;4.10;;;24.70;36.40;;;;;;5029271;28;20622;-50
2021/05/30 11:38:32;;;;;;;4.27;3.97;;;25.20;35.80;;;;;;5019141;28;20667;-50
2021/05/30 11:41:10;;;;;;;4.07;3.77;;;25.40;35.20;;;;;;5016407;28;20663;-50
2021/05/30 11:43:37;;;;;;;4.50;3.87;;;25.40;35.30;;;;;;5014992;28;20762;-50
2021/05/30 11:46:11;;;;;;;7.13;3.57;;;25.40;34.80;;;;;;5013832;28;20627;-50
2021/05/30 11:48:38;;;;;;;4.40;4.00;;;25.30;34.70;;;;;;5021426;28;20655;-50
2021/05/30 11:51:05;;;;;;;3.70;3.50;;;25.20;34.20;;;;;;4989286;28;20625;-49
2021/05/30 11:53:33;;;;;;;3.90;3.60;;;25.10;34.30;;;;;;5000959;28;20665;-50
2021/05/30 11:56:01;;;;;;;4.13;3.73;;;24.90;35.00;;;;;;5004580;28;20713;-50
2021/05/30 11:58:28;;;;;;;5.10;4.37;;;24.80;36.00;;;;;;5007555;28;21489;-51
2021/05/30 12:00:55;;;;;;;5.37;4.03;;;24.80;36.30;;;;;;5008746;28;20660;-50
2021/05/30 12:03:23;;;;;;;3.83;3.53;;;24.60;36.50;;;;;;5011835;28;20985;-50
2021/05/30 12:05:56;;;;;;;4.90;4.50;;;24.40;36.50;;;;;;5019121;28;20628;-50
2021/05/30 12:08:23;;;;;;;4.63;4.13;;;24.20;37.30;;;;;;5014066;28;20713;-50
2021/05/30 12:10:51;;;;;;;4.20;3.80;;;24.10;36.80;;;;;;5004004;28;20673;-49
2021/05/30 12:13:28;;;;;;;4.20;3.80;;;24.00;36.80;;;;;;5010352;28;20696;-49
2021/05/30 12:15:55;;;;;;;5.13;4.73;;;23.80;36.80;;;;;;5008603;28;20631;-50
2021/05/30 12:18:23;;;;;;;4.07;3.77;;;23.60;36.90;;;;;;5011562;28;20699;-50
2021/05/30 12:20:50;;;;;;;4.90;4.40;;;23.60;37.50;;;;;;5011867;28;20675;-49
2021/05/30 12:23:17;;;;;;;3.83;3.53;;;23.50;37.40;;;;;;5006831;28;20658;-51
2021/05/30 12:25:51;;;;;;;4.07;3.77;;;23.50;37.60;;;;;;5009850;28;20705;-50
2021/05/30 12:28:21;;;;;;;6.63;3.97;;;23.50;37.80;;;;;;5009320;28;20655;-51
2021/05/30 12:30:49;;;;;;;3.80;3.50;;;23.50;37.40;;;;;;5005866;28;20755;-50
2021/05/30 12:33:16;;;;;;;3.97;3.57;;;23.60;37.40;;;;;;5008763;28;20655;-50
2021/05/30 12:35:48;;;;;;;4.80;4.40;;;23.70;36.80;;;;;;5006312;28;20636;-51
2021/05/30 12:38:16;;;;;;;4.23;3.00;;;23.70;36.90;;;;;;5006546;28;20679;-51
2021/05/30 12:40:43;;;;;;;3.40;3.10;;;23.60;36.30;;;;;;5006978;28;21485;-51
2021/05/30 12:43:10;;;;;;;3.50;3.30;;;23.60;35.20;;;;;;5012405;28;21186;-50
2021/05/30 12:45:37;;;;;;;6.27;3.33;;;23.50;34.60;;;;;;5012256;28;20682;-50
2021/05/30 12:48:04;;;;;;;3.10;2.90;;;23.50;34.70;;;;;;5011002;28;20690;-50
2021/05/30 12:50:40;;;;;;;3.53;3.23;;;23.60;34.70;;;;;;5012636;28;20631;-50
2021/05/30 12:53:08;;;;;;;3.37;3.07;;;23.80;34.60;;;;;;5012038;28;21276;-51
2021/05/30 12:55:39;;;;;;;3.13;2.83;;;24.10;34.70;;;;;;5009882;28;20635;-51